createdAt,value
2023-05-11T00:00:25.000Z,8.67
2023-05-11T00:02:53.078Z,8.75
2023-05-11T00:05:21.178Z,8.80
2023-05-11T00:07:50.271Z,8.70
2023-05-11T00:10:18.546Z,8.62
2023-05-11T00:12:46.652Z,8.60
2023-05-11T00:15:16.025Z,8.20
2023-05-11T00:17:44.216Z,8.15
2023-05-11T00:20:12.669Z,8.37
2023-05-11T00:22:41.515Z,8.42
2023-05-11T00:25:11.280Z,8.40
2023-05-11T00:27:39.444Z,8.29
2023-05-11T00:30:08.953Z,8.25
2023-05-11T00:32:38.271Z,8.27
2023-05-11T00:35:07.040Z,8.29
2023-05-11T00:37:34.983Z,8.15
2023-05-11T00:40:03.084Z,8.16
2023-05-11T00:42:30.994Z,8.12
2023-05-11T00:44:59.659Z,8.15
2023-05-11T00:47:27.794Z,8.18
2023-05-11T00:49:57.192Z,8.12
2023-05-11T00:52:25.816Z,7.99
2023-05-11T00:54:53.745Z,7.99
2023-05-11T00:57:22.367Z,7.91
2023-05-11T00:59:51.156Z,7.76
2023-05-11T01:02:19.510Z,7.87
2023-05-11T01:04:47.522Z,7.97
2023-05-11T01:07:22.914Z,7.81
2023-05-11T01:10:01.608Z,7.82
2023-05-11T01:12:36.474Z,7.82
2023-05-11T01:15:10.215Z,7.72
2023-05-11T01:17:47.331Z,7.48
2023-05-11T01:20:19.753Z,7.37
2023-05-11T01:23:03.607Z,7.15
2023-05-11T01:25:52.827Z,7.14
2023-05-11T01:28:47.776Z,7.07
2023-05-11T01:31:17.061Z,7.19
2023-05-11T01:33:49.720Z,7.05
2023-05-11T01:36:20.309Z,7.09
2023-05-11T01:38:51.140Z,7.12
2023-05-11T01:41:22.066Z,7.16
2023-05-11T01:43:55.928Z,7.01
2023-05-11T01:46:28.008Z,6.81
2023-05-11T01:48:59.505Z,6.86
2023-05-11T01:51:31.665Z,6.74
2023-05-11T01:54:01.767Z,6.68
2023-05-11T01:56:30.546Z,6.82
2023-05-11T01:58:59.337Z,6.84
2023-05-11T02:01:30.193Z,6.78
2023-05-11T02:04:00.655Z,6.74
2023-05-11T02:06:32.643Z,6.67
2023-05-11T02:09:02.462Z,6.66
2023-05-11T02:11:32.167Z,6.58
2023-05-11T02:14:01.952Z,6.44
2023-05-11T02:16:33.343Z,6.32
2023-05-11T02:19:01.750Z,6.19
2023-05-11T02:21:33.028Z,6.16
2023-05-11T02:24:03.347Z,6.11
2023-05-11T02:26:31.257Z,6.12
2023-05-11T02:28:59.196Z,6.12
2023-05-11T02:31:30.220Z,6.11
2023-05-11T02:34:07.365Z,6.11
2023-05-11T02:36:40.091Z,6.02
2023-05-11T02:39:12.641Z,5.98
2023-05-11T02:41:44.592Z,5.99
2023-05-11T02:44:16.974Z,5.95
2023-05-11T02:46:48.606Z,5.92
2023-05-11T02:49:22.301Z,5.79
2023-05-11T02:51:51.769Z,5.58
2023-05-11T02:54:20.750Z,5.83
2023-05-11T02:56:49.265Z,5.80
2023-05-11T02:59:17.596Z,5.75
2023-05-11T03:13:51.272Z,6.35
2023-05-11T03:16:21.507Z,6.30
2023-05-11T03:18:50.485Z,6.17
2023-05-11T03:21:21.458Z,6.09
2023-05-11T03:23:50.615Z,6.06
2023-05-11T03:26:20.148Z,5.98
2023-05-11T03:28:48.975Z,5.82
2023-05-11T03:31:19.892Z,5.86
2023-05-11T03:33:47.862Z,5.82
2023-05-11T03:36:16.933Z,5.82
2023-05-11T03:38:47.689Z,5.80
2023-05-11T03:41:18.419Z,5.77
2023-05-11T03:43:50.345Z,5.84
2023-05-11T03:46:23.718Z,5.83
2023-05-11T03:48:52.428Z,5.67
2023-05-11T03:51:20.999Z,5.62
2023-05-11T03:53:49.047Z,5.70
2023-05-11T03:56:16.997Z,5.99
2023-05-11T03:58:45.848Z,6.15
2023-05-11T04:01:14.381Z,6.15
2023-05-11T04:03:50.696Z,6.18
2023-05-11T04:06:19.619Z,5.95
2023-05-11T04:08:47.657Z,6.03
2023-05-11T04:11:15.716Z,6.20
2023-05-11T04:13:43.698Z,6.15
2023-05-11T04:16:11.663Z,6.34
2023-05-11T04:18:39.628Z,6.74
2023-05-11T04:21:08.964Z,6.77
2023-05-11T04:23:37.158Z,7.08
2023-05-11T04:26:05.251Z,7.33
2023-05-11T04:28:33.175Z,7.71
2023-05-11T04:31:01.108Z,7.90
2023-05-11T04:33:29.040Z,8.09
2023-05-11T04:35:58.827Z,8.15
2023-05-11T04:38:28.449Z,8.54
2023-05-11T04:40:56.409Z,8.73
2023-05-11T04:43:24.308Z,8.80
2023-05-11T04:45:52.891Z,9.08
2023-05-11T04:48:21.167Z,9.15
2023-05-11T04:50:49.329Z,9.17
2023-05-11T04:53:17.279Z,9.43
2023-05-11T04:55:46.579Z,9.77
2023-05-11T04:58:14.565Z,9.99
2023-05-11T05:00:42.527Z,9.94
2023-05-11T05:03:10.542Z,10.52
2023-05-11T05:05:38.514Z,10.81
2023-05-11T05:08:07.406Z,10.92
2023-05-11T05:10:35.401Z,11.22
2023-05-11T05:13:04.687Z,11.55
2023-05-11T05:15:32.654Z,11.71
2023-05-11T05:18:00.625Z,11.56
2023-05-11T05:20:28.699Z,11.61
2023-05-11T05:22:56.671Z,11.74
2023-05-11T05:25:24.757Z,11.60
2023-05-11T05:27:52.643Z,11.85
2023-05-11T05:30:22.003Z,12.07
2023-05-11T05:32:49.967Z,11.91
2023-05-11T05:35:17.931Z,12.21
2023-05-11T05:37:45.928Z,12.48
2023-05-11T05:40:14.133Z,12.20
2023-05-11T05:42:42.076Z,12.46
2023-05-11T05:45:13.866Z,12.58
2023-05-11T05:47:44.046Z,12.57
2023-05-11T05:50:12.793Z,12.44
2023-05-11T05:52:40.716Z,12.63
2023-05-11T05:55:09.274Z,12.96
2023-05-11T05:57:37.169Z,13.15
2023-05-11T06:00:05.770Z,13.20
2023-05-11T06:02:33.766Z,13.11
2023-05-11T06:05:03.162Z,13.20
2023-05-11T06:07:31.166Z,13.54
2023-05-11T06:09:59.069Z,13.60
2023-05-11T06:12:27.110Z,13.75
2023-05-11T06:14:55.066Z,14.07
2023-05-11T06:17:23.156Z,14.01
2023-05-11T06:19:51.215Z,14.01
2023-05-11T06:22:20.567Z,13.77
2023-05-11T06:24:48.528Z,13.52
2023-05-11T06:27:18.228Z,13.99
2023-05-11T06:29:47.025Z,14.38
2023-05-11T06:32:14.906Z,14.41
2023-05-11T06:34:42.804Z,14.47
2023-05-11T06:37:10.732Z,14.70
2023-05-11T06:39:40.012Z,14.61
2023-05-11T06:42:08.206Z,14.64
2023-05-11T06:44:36.280Z,14.64
2023-05-11T06:47:04.236Z,14.70
2023-05-11T06:49:32.212Z,14.62
2023-05-11T06:52:00.116Z,14.98
2023-05-11T06:54:28.078Z,15.26
2023-05-11T06:56:57.342Z,15.81
2023-05-11T06:59:25.254Z,15.63
2023-05-11T07:01:53.149Z,15.20
2023-05-11T07:04:21.096Z,15.40
2023-05-11T07:06:49.109Z,15.35
2023-05-11T07:09:17.077Z,15.41
2023-05-11T07:11:45.077Z,15.85
2023-05-11T07:14:14.463Z,16.08
2023-05-11T07:16:43.275Z,16.35
2023-05-11T07:19:11.809Z,15.96
2023-05-11T07:21:39.894Z,15.63
2023-05-11T07:24:08.153Z,16.04
2023-05-11T07:26:36.151Z,15.93
2023-05-11T07:29:04.178Z,15.79
2023-05-11T07:31:33.996Z,16.21
2023-05-11T07:34:01.987Z,15.90
2023-05-11T07:36:30.086Z,15.97
2023-05-11T07:38:59.611Z,15.87
2023-05-11T07:41:27.859Z,16.16
2023-05-11T07:43:56.145Z,16.58
2023-05-11T07:46:24.207Z,17.07
2023-05-11T07:49:03.416Z,16.87
2023-05-11T07:51:35.948Z,16.65
2023-05-11T07:54:04.020Z,17.07
2023-05-11T07:56:32.060Z,17.15
2023-05-11T07:59:00.110Z,17.17
2023-05-11T08:01:28.132Z,17.50
2023-05-11T08:03:57.519Z,17.54
2023-05-11T08:06:25.546Z,17.55
2023-05-11T08:08:53.543Z,17.34
2023-05-11T08:11:21.771Z,18.00
2023-05-11T08:13:49.779Z,17.67
2023-05-11T08:16:18.302Z,17.83
2023-05-11T08:18:46.493Z,18.17
2023-05-11T08:21:16.163Z,17.92
2023-05-11T08:23:45.267Z,18.01
2023-05-11T08:26:13.397Z,17.98
2023-05-11T08:28:41.389Z,17.99
2023-05-11T08:31:09.382Z,18.40
2023-05-11T08:33:38.842Z,18.04
2023-05-11T08:36:08.932Z,18.15
2023-05-11T08:38:38.355Z,18.18
2023-05-11T08:41:07.829Z,18.04
2023-05-11T08:43:36.727Z,18.32
2023-05-11T08:46:07.479Z,18.15
2023-05-11T08:48:36.315Z,18.18
2023-05-11T08:51:04.663Z,18.30
2023-05-11T08:53:32.802Z,18.35
2023-05-11T08:56:05.696Z,18.39
2023-05-11T08:58:37.405Z,18.87
2023-05-11T09:01:06.732Z,18.98
2023-05-11T09:03:36.774Z,19.31
2023-05-11T09:06:07.454Z,19.20
2023-05-11T09:08:37.220Z,19.31
2023-05-11T09:11:06.877Z,19.39
2023-05-11T09:13:35.037Z,19.10
2023-05-11T09:16:02.978Z,19.02
2023-05-11T09:18:31.054Z,18.97
2023-05-11T09:20:59.027Z,18.96
2023-05-11T09:23:27.715Z,18.95
2023-05-11T09:25:56.060Z,18.16
2023-05-11T09:28:26.982Z,18.01
2023-05-11T09:30:55.488Z,18.28
2023-05-11T09:33:24.828Z,18.28
2023-05-11T09:35:54.086Z,18.72
2023-05-11T09:38:23.254Z,19.21
2023-05-11T09:40:53.109Z,19.41
2023-05-11T09:43:22.801Z,19.78
2023-05-11T09:45:53.355Z,19.42
2023-05-11T09:48:29.561Z,19.43
2023-05-11T09:51:02.670Z,19.65
2023-05-11T09:53:43.329Z,19.50
2023-05-11T09:56:12.139Z,19.29
2023-05-11T09:58:48.509Z,19.19
2023-05-11T10:01:19.762Z,19.32
2023-05-11T10:03:49.729Z,19.49
2023-05-11T10:06:20.023Z,19.16
2023-05-11T10:08:48.820Z,19.01
2023-05-11T10:11:16.837Z,18.62
2023-05-11T10:13:45.897Z,18.87
2023-05-11T10:16:16.400Z,19.05
2023-05-11T10:18:45.954Z,18.14
2023-05-11T10:21:16.803Z,18.05
2023-05-11T10:23:44.912Z,17.97
2023-05-11T10:26:14.187Z,18.32
2023-05-11T10:28:42.635Z,18.58
2023-05-11T10:31:11.250Z,18.43
2023-05-11T10:33:39.777Z,18.72
2023-05-11T10:36:10.285Z,18.93
2023-05-11T10:38:38.345Z,18.65
2023-05-11T10:41:17.921Z,18.53
2023-05-11T10:44:04.616Z,18.88
2023-05-11T10:46:50.453Z,19.30
2023-05-11T10:49:44.954Z,19.76
2023-05-11T10:52:38.228Z,19.43
2023-05-11T10:55:14.650Z,19.98
2023-05-11T10:57:58.450Z,19.69
2023-05-11T11:01:16.688Z,19.17
2023-05-11T11:03:57.331Z,19.04
2023-05-11T11:06:26.057Z,18.61
2023-05-11T11:09:00.055Z,18.35
2023-05-11T11:11:32.910Z,18.78
2023-05-11T11:14:03.866Z,19.11
2023-05-11T11:16:31.889Z,19.02
2023-05-11T11:19:37.236Z,19.17
2023-05-11T11:22:05.710Z,19.24
2023-05-11T11:24:48.060Z,18.84
2023-05-11T11:27:16.059Z,19.13
2023-05-11T11:30:17.438Z,19.35
2023-05-11T11:32:46.445Z,19.38
2023-05-11T11:35:49.848Z,19.28
2023-05-11T11:38:19.427Z,19.51
2023-05-11T11:40:52.806Z,19.84
2023-05-11T11:43:22.055Z,19.62
2023-05-11T11:45:54.830Z,19.76
2023-05-11T11:48:24.788Z,20.03
2023-05-11T11:51:04.272Z,19.93
2023-05-11T11:54:02.118Z,19.45
2023-05-11T11:56:43.722Z,19.45
2023-05-11T11:59:16.203Z,19.12
2023-05-11T12:01:46.006Z,19.11
2023-05-11T12:04:46.179Z,19.50
2023-05-11T12:07:16.371Z,19.72
2023-05-11T12:09:47.292Z,19.29
2023-05-11T12:12:18.889Z,19.29
2023-05-11T12:14:49.467Z,19.38
2023-05-11T12:17:25.794Z,19.49
2023-05-11T12:19:53.781Z,19.56
2023-05-11T12:22:25.853Z,19.32
2023-05-11T12:24:59.544Z,19.28
2023-05-11T12:27:29.670Z,19.10
2023-05-11T12:29:58.700Z,19.35
2023-05-11T12:32:28.544Z,19.59
2023-05-11T12:35:01.420Z,19.31
2023-05-11T12:37:30.036Z,19.17
2023-05-11T12:39:58.622Z,19.28
2023-05-11T12:42:27.786Z,19.09
2023-05-11T12:44:57.433Z,19.45
2023-05-11T12:47:25.589Z,19.42
2023-05-11T12:49:53.669Z,19.29
2023-05-11T12:52:24.988Z,18.86
2023-05-11T12:54:53.936Z,18.91
2023-05-11T12:57:26.515Z,19.22
2023-05-11T13:00:12.831Z,18.99
2023-05-11T13:02:52.100Z,18.90
2023-05-11T13:05:24.954Z,19.11
2023-05-11T13:07:58.929Z,19.19
2023-05-11T13:10:27.100Z,19.10
2023-05-11T13:12:56.233Z,18.84
2023-05-11T13:15:28.664Z,18.64
2023-05-11T13:17:59.282Z,18.15
2023-05-11T13:20:29.599Z,18.21
2023-05-11T13:23:08.675Z,18.34
2023-05-11T13:25:53.288Z,18.52
2023-05-11T13:28:23.491Z,18.62
2023-05-11T13:30:59.603Z,18.47
2023-05-11T13:33:27.765Z,18.16
2023-05-11T13:35:56.011Z,18.13
2023-05-11T13:38:23.947Z,18.20
2023-05-11T13:40:51.883Z,18.33
2023-05-11T13:43:19.823Z,18.34
2023-05-11T13:45:47.750Z,18.17
2023-05-11T13:48:17.743Z,18.05
2023-05-11T13:50:46.032Z,18.01
2023-05-11T13:53:14.059Z,17.72
2023-05-11T13:55:42.634Z,17.77
2023-05-11T13:58:10.660Z,17.85
2023-05-11T14:00:40.137Z,18.07
2023-05-11T14:03:08.280Z,18.31
2023-05-11T14:05:39.344Z,18.25
2023-05-11T14:08:07.401Z,18.25
2023-05-11T14:10:35.313Z,18.28
2023-05-11T14:13:03.205Z,18.43
2023-05-11T14:15:31.158Z,18.10
2023-05-11T14:17:59.378Z,18.09
2023-05-11T14:20:27.380Z,18.35
2023-05-11T14:22:57.204Z,18.26
2023-05-11T14:25:25.578Z,18.10
2023-05-11T14:27:55.551Z,18.14
2023-05-11T14:30:24.120Z,18.03
2023-05-11T14:32:53.422Z,17.81
2023-05-11T14:35:22.360Z,17.80
2023-05-11T14:37:50.240Z,17.96
2023-05-11T14:40:19.528Z,17.81
2023-05-11T14:42:47.464Z,17.67
2023-05-11T14:45:15.463Z,17.68
2023-05-11T14:47:43.531Z,17.70
2023-05-11T14:50:11.953Z,17.85
2023-05-11T14:52:39.871Z,17.81
2023-05-11T14:55:08.807Z,17.84
2023-05-11T14:57:38.140Z,17.79
2023-05-11T15:00:07.302Z,17.86
2023-05-11T15:02:35.324Z,17.67
2023-05-11T15:05:03.278Z,17.72
2023-05-11T15:07:31.156Z,17.54
2023-05-11T15:10:01.665Z,17.34
2023-05-11T15:12:31.187Z,17.23
2023-05-11T15:15:00.768Z,17.09
2023-05-11T15:17:28.743Z,16.94
2023-05-11T15:19:56.729Z,16.95
2023-05-11T15:22:24.616Z,16.96
2023-05-11T15:24:52.535Z,17.14
2023-05-11T15:27:20.420Z,16.95
2023-05-11T15:29:48.432Z,16.84
2023-05-11T15:32:18.168Z,16.87
2023-05-11T15:34:58.622Z,16.88
2023-05-11T15:37:27.558Z,17.11
2023-05-11T15:39:55.513Z,16.95
2023-05-11T15:42:23.419Z,16.68
2023-05-11T15:44:51.344Z,16.66
2023-05-11T15:47:20.693Z,16.68
2023-05-11T15:49:48.682Z,16.61
2023-05-11T15:52:16.660Z,16.69
2023-05-11T15:54:44.605Z,16.66
2023-05-11T15:57:12.530Z,16.67
2023-05-11T15:59:40.426Z,16.73
2023-05-11T16:02:08.544Z,16.52
2023-05-11T16:04:37.811Z,16.42
2023-05-11T16:07:06.005Z,16.42
2023-05-11T16:09:33.927Z,16.32
2023-05-11T16:12:02.089Z,16.40
2023-05-11T16:14:29.981Z,15.97
2023-05-11T16:16:57.974Z,16.10
2023-05-11T16:19:27.794Z,16.15
2023-05-11T16:21:57.178Z,16.21
2023-05-11T16:24:25.136Z,16.21
2023-05-11T16:26:53.023Z,16.33
2023-05-11T16:29:21.020Z,16.00
2023-05-11T16:31:49.090Z,16.00
2023-05-11T16:34:17.152Z,16.17
2023-05-11T16:36:45.146Z,15.82
2023-05-11T16:39:14.618Z,15.81
2023-05-11T16:41:42.472Z,15.83
2023-05-11T16:44:10.428Z,15.91
2023-05-11T16:46:38.912Z,16.03
2023-05-11T16:49:07.178Z,15.97
2023-05-11T16:51:35.126Z,15.90
2023-05-11T16:54:03.236Z,15.94
2023-05-11T16:56:32.574Z,15.64
2023-05-11T16:59:00.494Z,15.41
2023-05-11T17:01:28.552Z,15.53
2023-05-11T17:03:56.596Z,15.36
2023-05-11T17:06:26.724Z,15.23
2023-05-11T17:08:54.833Z,15.08
2023-05-11T17:11:22.788Z,15.15
2023-05-11T17:13:52.116Z,14.71
2023-05-11T17:16:20.140Z,14.73
2023-05-11T17:18:48.194Z,14.63
2023-05-11T17:21:16.897Z,14.61
2023-05-11T17:23:45.119Z,14.57
2023-05-11T17:26:13.904Z,14.75
2023-05-11T17:28:41.968Z,14.48
2023-05-11T17:31:12.853Z,14.25
2023-05-11T17:33:41.926Z,14.36
2023-05-11T17:36:11.777Z,14.43
2023-05-11T17:38:39.682Z,14.32
2023-05-11T17:41:08.181Z,14.29
2023-05-11T17:43:38.164Z,14.24
2023-05-11T17:46:06.792Z,14.21
2023-05-11T17:48:36.346Z,13.77
2023-05-11T17:51:04.293Z,13.98
2023-05-11T17:53:32.564Z,13.82
2023-05-11T17:56:01.118Z,13.56
2023-05-11T17:58:29.014Z,13.41
2023-05-11T18:00:56.913Z,13.46
2023-05-11T18:03:25.123Z,13.41
2023-05-11T18:05:55.817Z,13.40
2023-05-11T18:08:24.120Z,13.61
2023-05-11T18:10:52.109Z,13.74
2023-05-11T18:13:20.346Z,13.26
2023-05-11T18:15:48.823Z,13.12
2023-05-11T18:18:17.933Z,13.16
2023-05-11T18:20:46.533Z,13.26
2023-05-11T18:23:16.034Z,12.94
2023-05-11T18:25:44.247Z,12.90
2023-05-11T18:28:12.255Z,12.73
2023-05-11T18:30:40.298Z,12.73
2023-05-11T18:33:08.426Z,12.60
2023-05-11T18:35:38.989Z,12.80
2023-05-11T18:38:07.533Z,12.74
2023-05-11T18:40:37.866Z,12.73
2023-05-11T18:43:06.022Z,12.72
2023-05-11T18:45:35.067Z,12.83
2023-05-11T18:48:03.821Z,12.65
2023-05-11T18:50:31.886Z,12.45
2023-05-11T18:53:00.039Z,12.19
2023-05-11T18:55:30.978Z,12.13
2023-05-11T18:58:01.621Z,12.20
2023-05-11T19:00:31.239Z,12.02
2023-05-11T19:02:59.254Z,12.04
2023-05-11T19:05:27.276Z,12.16
2023-05-11T19:07:55.177Z,12.22
2023-05-11T19:10:24.513Z,11.82
2023-05-11T19:12:52.560Z,11.95
2023-05-11T19:15:21.930Z,11.82
2023-05-11T19:17:49.872Z,11.86
2023-05-11T19:20:18.157Z,11.79
2023-05-11T19:22:46.201Z,11.50
2023-05-11T19:25:14.158Z,11.73
2023-05-11T19:27:42.058Z,11.62
2023-05-11T19:30:10.797Z,11.74
2023-05-11T19:32:41.746Z,11.46
2023-05-11T19:35:11.756Z,11.61
2023-05-11T19:37:39.657Z,11.53
2023-05-11T19:40:37.980Z,11.36
2023-05-11T19:42:56.635Z,11.52
2023-05-11T19:45:24.832Z,11.45
2023-05-11T19:47:54.177Z,11.46
2023-05-11T19:50:24.441Z,11.38
2023-05-11T19:52:54.485Z,11.33
2023-05-11T19:55:22.404Z,10.97
2023-05-11T19:57:50.419Z,11.19
2023-05-11T20:00:20.466Z,11.29
2023-05-11T20:02:48.811Z,11.19
2023-05-11T20:05:18.340Z,11.21
2023-05-11T20:07:46.496Z,11.20
2023-05-11T20:10:14.412Z,11.07
2023-05-11T20:12:42.370Z,11.05
2023-05-11T20:15:11.545Z,11.11
2023-05-11T20:17:39.765Z,11.19
2023-05-11T20:20:09.417Z,10.85
2023-05-11T20:22:39.191Z,10.95
2023-05-11T20:25:17.078Z,11.07
2023-05-11T20:27:46.519Z,10.94
2023-05-11T20:30:15.063Z,10.94
2023-05-11T20:34:06.911Z,10.87
2023-05-11T20:35:31.150Z,10.83
2023-05-11T20:38:00.478Z,10.79
2023-05-11T20:40:28.460Z,10.82
2023-05-11T20:42:56.350Z,10.59
2023-05-11T20:45:24.273Z,10.59
2023-05-11T20:47:52.400Z,10.63
2023-05-11T20:50:20.706Z,10.61
2023-05-11T20:52:48.780Z,10.59
2023-05-11T20:55:18.446Z,10.59
2023-05-11T20:57:46.634Z,10.49
2023-05-11T21:00:16.123Z,10.64
2023-05-11T21:02:44.165Z,10.53
2023-05-11T21:05:12.131Z,10.55
2023-05-11T21:07:40.211Z,10.45
2023-05-11T21:10:08.890Z,10.44
2023-05-11T21:12:38.186Z,10.32
2023-05-11T21:15:07.258Z,10.32
2023-05-11T21:17:35.808Z,10.43
2023-05-11T21:20:05.133Z,10.12
2023-05-11T21:22:33.528Z,10.23
2023-05-11T21:25:01.564Z,10.30
2023-05-11T21:27:29.422Z,10.29
2023-05-11T21:29:58.745Z,10.28
2023-05-11T21:32:26.700Z,10.26
2023-05-11T21:34:54.594Z,10.06
2023-05-11T21:37:22.519Z,10.22
2023-05-11T21:39:50.553Z,9.79
2023-05-11T21:42:18.559Z,10.08
2023-05-11T21:44:46.503Z,10.25
2023-05-11T21:47:16.022Z,10.33
2023-05-11T21:49:43.927Z,10.31
2023-05-11T21:52:12.295Z,10.21
2023-05-11T21:54:40.200Z,9.87
2023-05-11T21:57:08.098Z,9.86
2023-05-11T21:59:36.211Z,10.10
2023-05-11T22:02:04.696Z,10.08
2023-05-11T22:04:34.583Z,9.88
2023-05-11T22:07:02.460Z,9.72
2023-05-11T22:09:31.623Z,9.86
2023-05-11T22:11:59.698Z,9.89
2023-05-11T22:14:27.660Z,9.76
2023-05-11T22:16:55.551Z,9.77
2023-05-11T22:19:23.471Z,9.80
2023-05-11T22:21:53.236Z,9.80
2023-05-11T22:24:21.658Z,9.76
2023-05-11T22:26:49.916Z,9.77
2023-05-11T22:29:17.901Z,9.75
2023-05-11T22:31:46.453Z,9.45
2023-05-11T22:34:14.444Z,9.37
2023-05-11T22:36:42.326Z,9.53
2023-05-11T22:39:12.365Z,9.65
2023-05-11T22:41:40.324Z,9.35
2023-05-11T22:44:09.432Z,9.57
2023-05-11T22:46:37.404Z,9.57
2023-05-11T22:49:05.290Z,9.53
2023-05-11T22:51:33.184Z,9.47
2023-05-11T22:54:01.085Z,9.44
2023-05-11T22:56:30.648Z,9.49
2023-05-11T22:58:59.933Z,9.47
2023-05-11T23:01:28.062Z,9.51
2023-05-11T23:03:56.029Z,9.55
2023-05-11T23:06:23.932Z,9.33
2023-05-11T23:08:51.955Z,9.45
2023-05-11T23:11:20.000Z,9.47
2023-05-11T23:13:49.264Z,9.60
2023-05-11T23:16:17.782Z,9.25
2023-05-11T23:18:46.001Z,9.55
2023-05-11T23:21:13.971Z,9.58
2023-05-11T23:23:42.975Z,9.50
2023-05-11T23:26:10.982Z,9.20
2023-05-11T23:28:38.852Z,9.10
2023-05-11T23:31:08.181Z,9.27
2023-05-11T23:33:36.084Z,9.44
2023-05-11T23:36:04.006Z,9.49
2023-05-11T23:38:31.894Z,9.49
2023-05-11T23:40:59.889Z,9.41
2023-05-11T23:43:28.326Z,9.57
2023-05-11T23:45:57.625Z,9.38
2023-05-11T23:48:26.966Z,9.55
2023-05-11T23:50:54.849Z,9.53
2023-05-11T23:53:22.905Z,9.42
2023-05-11T23:55:50.923Z,9.40
2023-05-11T23:58:18.813Z,9.33
